Time;durP1;ratioP1;P1;durP2;ratioP2;P2;SDS_P1;SDS_P2;PMS_P1;PMS_P2;Temp;Humidity;BMP_temperature;BMP_pressure;BME280_temperature;BME280_humidity;BME280_pressure;Samples;Min_cycle;Max_cycle;Signal;HPM_P1;HPM_P2
2023/07/16 00:02:04;;;;;;;;;;;;;;;;;;5037278;28;19928;-27
2023/07/16 00:04:30;;;;;;;;;;;;;;;;;;5037030;28;19991;-25
2023/07/16 00:06:56;;;;;;;;;;;;;;;;;;5037441;28;19909;-22
2023/07/16 00:09:23;;;;;;;;;;;;;;;;;;5037133;28;19917;-23
2023/07/16 00:11:49;;;;;;;;;;;;;;;;;;5037254;28;19920;-26
2023/07/16 00:14:15;;;;;;;;;;;;;;;;;;5037069;28;20260;-24
2023/07/16 00:16:41;;;;;;;;;;;;;;;;;;5037038;28;20399;-24
2023/07/16 00:19:07;;;;;;;;;;;;;;;;;;5037267;28;20280;-25
2023/07/16 00:21:33;;;;;;;;;;;;;;;;;;5036651;28;19963;-26
2023/07/16 00:23:59;;;;;;;;;;;;;;;;;;5036378;28;19915;-28
2023/07/16 00:26:25;;;;;;;;;;;;;;;;;;5036917;28;19909;-22
2023/07/16 00:28:51;;;;;;;;;;;;;;;;;;5037100;28;19909;-26
2023/07/16 00:31:17;;;;;;;;;;;;;;;;;;5036789;28;19960;-25
2023/07/16 00:33:43;;;;;;;;;;;;;;;;;;5036662;28;19913;-26
2023/07/16 00:36:09;;;;;;;;;;;;;;;;;;5036727;28;19967;-24
2023/07/16 00:38:35;;;;;;;;;;;;;;;;;;5036776;28;19913;-24
2023/07/16 00:41:01;;;;;;;;;;;;;;;;;;5036847;28;19910;-27
2023/07/16 00:43:27;;;;;;;;;;;;;;;;;;5036514;28;19917;-25
2023/07/16 00:45:53;;;;;;;;;;;;;;;;;;5036717;28;19909;-24
2023/07/16 00:48:19;;;;;;;;;;;;;;;;;;5036700;28;19909;-28
2023/07/16 00:50:45;;;;;;;;;;;;;;;;;;5036388;28;20328;-25
2023/07/16 00:53:10;;;;;;;;;;;;;;;;;;5036295;28;20299;-27
2023/07/16 00:55:36;;;;;;;;;;;;;;;;;;5036291;28;19931;-22
2023/07/16 00:58:04;;;;;;;;;;;;;;;;;;5036287;28;19909;-25
2023/07/16 01:00:30;;;;;;;;;;;;;;;;;;5036388;28;19917;-28
2023/07/16 01:02:56;;;;;;;;;;;;;;;;;;5036261;28;19985;-25
2023/07/16 01:05:22;;;;;;;;;;;;;;;;;;5036487;28;19940;-26
2023/07/16 01:07:48;;;;;;;;;;;;;;;;;;5036213;28;19964;-27
2023/07/16 01:10:14;;;;;;;;;;;;;;;;;;5036319;28;20363;-29
2023/07/16 01:12:40;;;;;;;;;;;;;;;;;;5035968;28;19920;-23
2023/07/16 01:15:06;;;;;;;;;;;;;;;;;;5035922;28;20446;-26
2023/07/16 01:17:32;;;;;;;;;;;;;;;;;;5035894;28;20248;-30
2023/07/16 01:19:58;;;;;;;;;;;;;;;;;;5036032;28;20351;-31
2023/07/16 01:22:24;;;;;;;;;;;;;;;;;;5035716;28;19971;-23
2023/07/16 01:24:50;;;;;;;;;;;;;;;;;;5035765;28;19919;-27
2023/07/16 01:27:16;;;;;;;;;;;;;;;;;;5036411;28;19913;-26
2023/07/16 01:29:42;;;;;;;;;;;;;;;;;;5035655;28;19920;-24
2023/07/16 01:32:08;;;;;;;;;;;;;;;;;;5035568;28;19997;-26
2023/07/16 01:34:34;;;;;;;;;;;;;;;;;;5035626;28;19909;-26
2023/07/16 01:37:00;;;;;;;;;;;;;;;;;;5035522;28;20319;-25
2023/07/16 01:39:26;;;;;;;;;;;;;;;;;;5035671;28;20255;-26
2023/07/16 01:41:52;;;;;;;;;;;;;;;;;;5035326;28;19909;-26
2023/07/16 01:44:18;;;;;;;;;;;;;;;;;;5035680;28;19910;-25
2023/07/16 01:46:43;;;;;;;;;;;;;;;;;;5017916;28;19913;-26
2023/07/16 01:49:09;;;;;;;;;;;;;;;;;;5035253;28;19910;-26
2023/07/16 01:51:35;;;;;;;;;;;;;;;;;;5035217;28;19936;-26
2023/07/16 01:54:01;;;;;;;;;;;;;;;;;;5035162;28;19909;-24
2023/07/16 01:56:27;;;;;;;;;;;;;;;;;;5035140;28;19963;-23
2023/07/16 01:58:53;;;;;;;;;;;;;;;;;;5035025;28;19924;-21
2023/07/16 02:01:19;;;;;;;;;;;;;;;;;;5035329;28;19909;-27
2023/07/16 02:03:45;;;;;;;;;;;;;;;;;;5034823;28;19928;-24
2023/07/16 02:06:13;;;;;;;;;;;;;;;;;;5035013;28;20043;-25
2023/07/16 02:08:39;;;;;;;;;;;;;;;;;;5034982;28;19909;-30
2023/07/16 02:11:05;;;;;;;;;;;;;;;;;;5017532;28;19909;-27
2023/07/16 02:13:31;;;;;;;;;;;;;;;;;;5034815;28;20000;-26
2023/07/16 02:15:57;;;;;;;;;;;;;;;;;;5034950;28;19909;-25
2023/07/16 02:18:23;;;;;;;;;;;;;;;;;;5034731;28;19966;-23
2023/07/16 02:20:49;;;;;;;;;;;;;;;;;;5017409;28;19960;-24
2023/07/16 02:23:15;;;;;;;;;;;;;;;;;;5034922;28;19909;-25
2023/07/16 02:25:41;;;;;;;;;;;;;;;;;;5034755;28;20007;-24
2023/07/16 02:28:06;;;;;;;;;;;;;;;;;;5034712;28;20202;-30
2023/07/16 02:30:32;;;;;;;;;;;;;;;;;;5034614;28;19909;-24
2023/07/16 02:32:58;;;;;;;;;;;;;;;;;;5034546;28;19909;-27
2023/07/16 02:35:24;;;;;;;;;;;;;;;;;;5017136;28;19999;-26
2023/07/16 02:37:50;;;;;;;;;;;;;;;;;;5035081;28;19913;-32
2023/07/16 02:40:16;;;;;;;;;;;;;;;;;;5034495;28;19913;-22
2023/07/16 02:42:42;;;;;;;;;;;;;;;;;;5034428;28;19916;-25
2023/07/16 02:45:08;;;;;;;;;;;;;;;;;;5035906;28;19928;-25
2023/07/16 02:47:34;;;;;;;;;;;;;;;;;;5041112;28;19909;-23
2023/07/16 02:50:00;;;;;;;;;;;;;;;;;;5041330;28;19920;-28
2023/07/16 02:52:26;;;;;;;;;;;;;;;;;;5041037;28;20003;-22
2023/07/16 02:54:52;;;;;;;;;;;;;;;;;;5041338;28;19909;-28
2023/07/16 02:57:18;;;;;;;;;;;;;;;;;;5041079;28;20397;-29
2023/07/16 02:59:44;;;;;;;;;;;;;;;;;;5041039;28;20397;-26
2023/07/16 03:02:10;;;;;;;;;;;;;;;;;;5041211;28;19920;-27
2023/07/16 03:04:36;;;;;;;;;;;;;;;;;;5040872;28;20344;-27
2023/07/16 03:07:02;;;;;;;;;;;;;;;;;;5040895;28;19909;-26
2023/07/16 03:09:27;;;;;;;;;;;;;;;;;;5040979;28;20003;-28
2023/07/16 03:11:53;;;;;;;;;;;;;;;;;;5040865;28;19975;-28
2023/07/16 03:14:19;;;;;;;;;;;;;;;;;;5040832;28;19917;-25
2023/07/16 03:16:45;;;;;;;;;;;;;;;;;;5040846;28;19932;-26
2023/07/16 03:19:11;;;;;;;;;;;;;;;;;;5040810;28;19967;-24
2023/07/16 03:21:37;;;;;;;;;;;;;;;;;;5023268;28;19952;-27
2023/07/16 03:24:03;;;;;;;;;;;;;;;;;;5040932;28;19916;-27
2023/07/16 03:26:29;;;;;;;;;;;;;;;;;;5040760;28;19935;-25
2023/07/16 03:28:55;;;;;;;;;;;;;;;;;;5041225;28;19951;-24
2023/07/16 03:31:21;;;;;;;;;;;;;;;;;;5040733;28;19913;-26
2023/07/16 03:33:47;;;;;;;;;;;;;;;;;;5040897;28;19922;-20
2023/07/16 03:36:13;;;;;;;;;;;;;;;;;;5040668;28;19909;-27
2023/07/16 03:38:39;;;;;;;;;;;;;;;;;;5040646;28;19913;-26
2023/07/16 03:41:05;;;;;;;;;;;;;;;;;;5040662;28;19909;-25
2023/07/16 03:43:31;;;;;;;;;;;;;;;;;;5023042;28;20270;-27
2023/07/16 03:45:57;;;;;;;;;;;;;;;;;;5040537;28;20233;-29
2023/07/16 03:48:22;;;;;;;;;;;;;;;;;;5040794;28;19912;-27
2023/07/16 03:50:48;;;;;;;;;;;;;;;;;;5040475;28;19909;-27
2023/07/16 03:53:14;;;;;;;;;;;;;;;;;;5040551;28;19909;-22
2023/07/16 03:55:40;;;;;;;;;;;;;;;;;;5040794;28;20370;-25
2023/07/16 03:58:06;;;;;;;;;;;;;;;;;;5036607;28;19916;-26
2023/07/16 04:00:33;;;;;;;;;;;;;;;;;;5037315;28;20310;-26
2023/07/16 04:02:59;;;;;;;;;;;;;;;;;;5036992;28;19917;-27
2023/07/16 04:05:25;;;;;;;;;;;;;;;;;;5037582;28;19920;-26
2023/07/16 04:07:51;;;;;;;;;;;;;;;;;;5037236;28;19909;-26
2023/07/16 04:10:17;;;;;;;;;;;;;;;;;;5037151;28;19910;-30
2023/07/16 04:12:43;;;;;;;;;;;;;;;;;;5037181;28;19909;-26
2023/07/16 04:15:11;;;;;;;;;;;;;;;;;;5037089;28;19924;-23
2023/07/16 04:17:37;;;;;;;;;;;;;;;;;;5037308;28;20012;-26
2023/07/16 04:20:06;;;;;;;;;;;;;;;;;;5037188;28;19913;-24
2023/07/16 04:22:32;;;;;;;;;;;;;;;;;;5036853;28;19931;-29
2023/07/16 04:24:58;;;;;;;;;;;;;;;;;;5036900;28;19992;-25
2023/07/16 04:27:24;;;;;;;;;;;;;;;;;;5036808;28;20249;-24
2023/07/16 04:29:50;;;;;;;;;;;;;;;;;;5037046;28;19920;-25
2023/07/16 04:32:16;;;;;;;;;;;;;;;;;;5036933;28;19943;-24
2023/07/16 04:34:42;;;;;;;;;;;;;;;;;;5037200;28;20332;-24
2023/07/16 04:37:08;;;;;;;;;;;;;;;;;;5036669;28;20011;-26
2023/07/16 04:39:34;;;;;;;;;;;;;;;;;;5037525;28;19913;-30
2023/07/16 04:42:00;;;;;;;;;;;;;;;;;;5036498;28;20336;-28
2023/07/16 04:44:26;;;;;;;;;;;;;;;;;;5036808;28;20285;-27
2023/07/16 04:46:52;;;;;;;;;;;;;;;;;;5036547;28;19909;-24
2023/07/16 04:49:18;;;;;;;;;;;;;;;;;;5036773;28;20340;-27
2023/07/16 04:51:43;;;;;;;;;;;;;;;;;;5036735;28;19995;-23
2023/07/16 04:54:09;;;;;;;;;;;;;;;;;;5036370;28;19917;-29
2023/07/16 04:56:35;;;;;;;;;;;;;;;;;;5036334;28;19910;-24
2023/07/16 04:59:01;;;;;;;;;;;;;;;;;;5036460;28;19913;-28
2023/07/16 05:01:27;;;;;;;;;;;;;;;;;;5036482;28;20368;-27
2023/07/16 05:03:53;;;;;;;;;;;;;;;;;;5035914;28;19957;-25
2023/07/16 05:06:19;;;;;;;;;;;;;;;;;;5036161;28;19916;-26
2023/07/16 05:08:45;;;;;;;;;;;;;;;;;;5035790;28;19920;-23
2023/07/16 05:11:11;;;;;;;;;;;;;;;;;;5036062;28;19920;-27
2023/07/16 05:13:37;;;;;;;;;;;;;;;;;;5036384;28;20237;-27
2023/07/16 05:16:03;;;;;;;;;;;;;;;;;;5036197;28;19931;-24
2023/07/16 05:18:29;;;;;;;;;;;;;;;;;;5036035;28;19932;-28
2023/07/16 05:20:55;;;;;;;;;;;;;;;;;;5035861;28;20003;-23
2023/07/16 05:23:21;;;;;;;;;;;;;;;;;;5035756;28;19913;-23
2023/07/16 05:25:48;;;;;;;;;;;;;;;;;;5035682;28;20004;-26
2023/07/16 05:28:14;;;;;;;;;;;;;;;;;;5035710;28;19920;-26
2023/07/16 05:30:39;;;;;;;;;;;;;;;;;;5035967;28;19909;-29
2023/07/16 05:33:05;;;;;;;;;;;;;;;;;;5018100;28;19913;-29
2023/07/16 05:35:31;;;;;;;;;;;;;;;;;;5035867;28;19913;-25
2023/07/16 05:37:57;;;;;;;;;;;;;;;;;;5035542;28;19956;-26
2023/07/16 05:40:23;;;;;;;;;;;;;;;;;;5035414;28;19924;-25
2023/07/16 05:42:49;;;;;;;;;;;;;;;;;;5017835;28;19953;-27
2023/07/16 05:45:15;;;;;;;;;;;;;;;;;;5035681;28;19948;-23
2023/07/16 05:47:41;;;;;;;;;;;;;;;;;;5035385;28;20245;-22
2023/07/16 05:50:07;;;;;;;;;;;;;;;;;;5017847;28;19921;-26
2023/07/16 05:52:33;;;;;;;;;;;;;;;;;;5035387;28;20000;-25
2023/07/16 05:54:59;;;;;;;;;;;;;;;;;;5035220;28;19909;-27
2023/07/16 05:57:25;;;;;;;;;;;;;;;;;;5035872;28;19920;-23
2023/07/16 05:59:51;;;;;;;;;;;;;;;;;;5035040;28;19924;-28
2023/07/16 06:02:17;;;;;;;;;;;;;;;;;;5035032;28;20230;-25
2023/07/16 06:04:43;;;;;;;;;;;;;;;;;;5034943;28;20264;-25
2023/07/16 06:07:09;;;;;;;;;;;;;;;;;;5035291;28;19910;-28
2023/07/16 06:09:35;;;;;;;;;;;;;;;;;;5035256;28;20060;-25
2023/07/16 06:12:01;;;;;;;;;;;;;;;;;;5034932;28;20281;-24
2023/07/16 06:14:27;;;;;;;;;;;;;;;;;;5035251;28;19909;-22
2023/07/16 06:16:53;;;;;;;;;;;;;;;;;;5034891;28;20280;-29
2023/07/16 06:19:19;;;;;;;;;;;;;;;;;;5034932;28;20336;-25
2023/07/16 06:21:44;;;;;;;;;;;;;;;;;;5016897;28;19916;-30
2023/07/16 06:24:10;;;;;;;;;;;;;;;;;;5035294;28;19920;-27
2023/07/16 06:26:36;;;;;;;;;;;;;;;;;;5034768;28;19952;-24
2023/07/16 06:29:02;;;;;;;;;;;;;;;;;;5034759;28;19920;-22
2023/07/16 06:31:28;;;;;;;;;;;;;;;;;;5034691;28;19960;-23
2023/07/16 06:33:54;;;;;;;;;;;;;;;;;;5034602;28;19909;-23
2023/07/16 06:36:20;;;;;;;;;;;;;;;;;;5034868;28;19963;-22
2023/07/16 06:38:46;;;;;;;;;;;;;;;;;;5034521;28;19920;-28
2023/07/16 06:41:12;;;;;;;;;;;;;;;;;;5034872;28;20310;-25
2023/07/16 06:43:38;;;;;;;;;;;;;;;;;;5034554;28;19999;-27
2023/07/16 06:46:04;;;;;;;;;;;;;;;;;;5034832;28;19909;-31
2023/07/16 06:48:30;;;;;;;;;;;;;;;;;;5034537;28;19913;-29
2023/07/16 06:50:56;;;;;;;;;;;;;;;;;;5017108;28;20004;-30
2023/07/16 06:53:22;;;;;;;;;;;;;;;;;;5034458;28;20302;-23
2023/07/16 06:55:48;;;;;;;;;;;;;;;;;;5034681;28;19910;-26
2023/07/16 06:58:15;;;;;;;;;;;;;;;;;;5034394;28;19999;-27
2023/07/16 07:00:41;;;;;;;;;;;;;;;;;;5034354;28;19917;-26
2023/07/16 07:03:06;;;;;;;;;;;;;;;;;;5034277;28;19983;-29
2023/07/16 07:05:32;;;;;;;;;;;;;;;;;;5034594;28;19919;-25
2023/07/16 07:07:58;;;;;;;;;;;;;;;;;;5034311;28;19909;-28
2023/07/16 07:10:24;;;;;;;;;;;;;;;;;;5034268;28;20007;-23
2023/07/16 07:12:50;;;;;;;;;;;;;;;;;;5034353;28;20340;-27
2023/07/16 07:15:16;;;;;;;;;;;;;;;;;;5034550;28;19909;-32
2023/07/16 07:17:42;;;;;;;;;;;;;;;;;;5034510;28;19908;-28
2023/07/16 07:20:08;;;;;;;;;;;;;;;;;;5034073;28;19913;-29
2023/07/16 07:22:34;;;;;;;;;;;;;;;;;;5034197;28;20008;-25
2023/07/16 07:25:00;;;;;;;;;;;;;;;;;;5034210;28;20351;-25
2023/07/16 07:27:26;;;;;;;;;;;;;;;;;;5034411;28;19932;-21
2023/07/16 07:29:52;;;;;;;;;;;;;;;;;;5034194;28;20004;-24
2023/07/16 07:32:18;;;;;;;;;;;;;;;;;;5018754;28;19996;-29
2023/07/16 07:34:44;;;;;;;;;;;;;;;;;;5037848;28;19945;-24
2023/07/16 07:37:10;;;;;;;;;;;;;;;;;;5037834;28;19913;-25
2023/07/16 07:39:36;;;;;;;;;;;;;;;;;;5037718;28;20352;-26
2023/07/16 07:42:02;;;;;;;;;;;;;;;;;;5037738;28;19920;-23
2023/07/16 07:44:28;;;;;;;;;;;;;;;;;;5037724;28;19917;-22
2023/07/16 07:46:54;;;;;;;;;;;;;;;;;;5037907;28;20351;-26
2023/07/16 07:49:20;;;;;;;;;;;;;;;;;;5037583;28;20004;-26
2023/07/16 07:51:49;;;;;;;;;;;;;;;;;;5037724;28;19909;-26
2023/07/16 07:54:15;;;;;;;;;;;;;;;;;;5037500;28;20252;-30
2023/07/16 07:56:41;;;;;;;;;;;;;;;;;;5037491;28;19967;-24
2023/07/16 07:59:06;;;;;;;;;;;;;;;;;;5037303;28;19967;-23
2023/07/16 08:01:32;;;;;;;;;;;;;;;;;;5037609;28;19919;-26
2023/07/16 08:03:58;;;;;;;;;;;;;;;;;;5037434;28;19920;-28
2023/07/16 08:06:26;;;;;;;;;;;;;;;;;;5037536;28;19909;-24
2023/07/16 08:08:52;;;;;;;;;;;;;;;;;;5037498;28;19970;-26
2023/07/16 08:11:17;;;;;;;;;;;;;;;;;;5037369;28;20384;-23
2023/07/16 08:13:43;;;;;;;;;;;;;;;;;;5037034;28;20252;-26
2023/07/16 08:16:09;;;;;;;;;;;;;;;;;;5036960;28;19909;-24
2023/07/16 08:18:35;;;;;;;;;;;;;;;;;;5036955;28;19967;-25
2023/07/16 08:21:01;;;;;;;;;;;;;;;;;;5036901;28;19936;-26
2023/07/16 08:23:27;;;;;;;;;;;;;;;;;;5036740;28;20004;-28
2023/07/16 08:25:53;;;;;;;;;;;;;;;;;;5036838;28;19919;-23
2023/07/16 08:28:19;;;;;;;;;;;;;;;;;;5036809;28;19949;-24
2023/07/16 08:30:45;;;;;;;;;;;;;;;;;;5036871;28;20241;-25
2023/07/16 08:33:11;;;;;;;;;;;;;;;;;;5036740;28;19909;-25
2023/07/16 08:35:37;;;;;;;;;;;;;;;;;;5037028;28;19913;-23
2023/07/16 08:38:03;;;;;;;;;;;;;;;;;;5036724;28;19910;-26
2023/07/16 08:40:29;;;;;;;;;;;;;;;;;;5019074;28;20226;-27
2023/07/16 08:42:55;;;;;;;;;;;;;;;;;;5035821;28;20011;-26
2023/07/16 08:45:23;;;;;;;;;;;;;;;;;;5036812;28;19909;-29
2023/07/16 08:47:49;;;;;;;;;;;;;;;;;;5036794;28;20264;-24
2023/07/16 08:50:15;;;;;;;;;;;;;;;;;;5036461;28;19935;-25
2023/07/16 08:52:41;;;;;;;;;;;;;;;;;;5036305;28;19913;-23
2023/07/16 08:55:07;;;;;;;;;;;;;;;;;;5036634;28;19921;-24
2023/07/16 08:57:32;;;;;;;;;;;;;;;;;;5036597;28;20359;-26
2023/07/16 08:59:58;;;;;;;;;;;;;;;;;;5036193;28;19925;-22
2023/07/16 09:02:24;;;;;;;;;;;;;;;;;;5036412;28;19921;-27
2023/07/16 09:04:54;;;;;;;;;;;;;;;;;;5035998;28;19947;-27
2023/07/16 09:07:20;;;;;;;;;;;;;;;;;;5036046;28;19920;-31
2023/07/16 09:09:46;;;;;;;;;;;;;;;;;;5036096;28;20241;-26
2023/07/16 09:12:12;;;;;;;;;;;;;;;;;;5036238;28;20245;-23
2023/07/16 09:14:38;;;;;;;;;;;;;;;;;;5036295;28;19981;-25
2023/07/16 09:17:04;;;;;;;;;;;;;;;;;;5035975;28;20003;-25
2023/07/16 09:19:30;;;;;;;;;;;;;;;;;;5035806;28;20299;-28
2023/07/16 09:21:56;;;;;;;;;;;;;;;;;;5035768;28;19932;-25
2023/07/16 09:24:22;;;;;;;;;;;;;;;;;;5035866;28;19948;-24
2023/07/16 09:26:48;;;;;;;;;;;;;;;;;;5035753;28;19917;-27
2023/07/16 09:29:14;;;;;;;;;;;;;;;;;;5035674;28;19909;-30
2023/07/16 09:31:40;;;;;;;;;;;;;;;;;;5035629;28;19944;-25
2023/07/16 09:34:06;;;;;;;;;;;;;;;;;;5035514;28;19909;-24
2023/07/16 09:36:32;;;;;;;;;;;;;;;;;;5035570;28;19948;-23
2023/07/16 09:38:58;;;;;;;;;;;;;;;;;;5035652;28;19971;-25
2023/07/16 09:41:24;;;;;;;;;;;;;;;;;;5035440;28;19913;-23
2023/07/16 09:43:50;;;;;;;;;;;;;;;;;;5035325;28;19909;-27
2023/07/16 09:46:16;;;;;;;;;;;;;;;;;;5035360;28;19913;-27
2023/07/16 09:48:42;;;;;;;;;;;;;;;;;;5035662;28;19963;-28
2023/07/16 09:51:08;;;;;;;;;;;;;;;;;;5035301;28;20205;-25
2023/07/16 09:53:33;;;;;;;;;;;;;;;;;;5035263;28;20008;-24
2023/07/16 09:55:59;;;;;;;;;;;;;;;;;;5034350;28;19909;-28
2023/07/16 09:58:25;;;;;;;;;;;;;;;;;;5035518;28;19920;-25
2023/07/16 10:00:51;;;;;;;;;;;;;;;;;;5035140;28;19913;-31
2023/07/16 10:03:17;;;;;;;;;;;;;;;;;;5008472;28;19940;-28
2023/07/16 10:05:43;;;;;;;;;;;;;;;;;;4995784;28;20326;-26
2023/07/16 10:08:11;;;;;;;;;;;;;;;;;;4996002;28;19910;-22
2023/07/16 10:10:37;;;;;;;;;;;;;;;;;;4995750;28;19965;-27
2023/07/16 10:13:03;;;;;;;;;;;;;;;;;;4995787;28;19913;-25
2023/07/16 10:15:29;;;;;;;;;;;;;;;;;;4995635;28;19910;-26
2023/07/16 10:17:55;;;;;;;;;;;;;;;;;;4995556;28;19916;-21
2023/07/16 10:20:21;;;;;;;;;;;;;;;;;;4994424;28;19920;-29
2023/07/16 10:22:47;;;;;;;;;;;;;;;;;;4995450;28;19910;-29
2023/07/16 10:25:13;;;;;;;;;;;;;;;;;;4995442;28;19917;-23
2023/07/16 10:27:39;;;;;;;;;;;;;;;;;;4995504;28;19910;-25
2023/07/16 10:30:05;;;;;;;;;;;;;;;;;;4995675;28;20245;-28
2023/07/16 10:32:31;;;;;;;;;;;;;;;;;;4995352;28;19925;-23
2023/07/16 10:34:57;;;;;;;;;;;;;;;;;;4995367;28;19914;-24
2023/07/16 10:37:23;;;;;;;;;;;;;;;;;;4995327;28;19945;-25
2023/07/16 10:39:49;;;;;;;;;;;;;;;;;;4995288;28;19914;-25
2023/07/16 10:42:15;;;;;;;;;;;;;;;;;;4995183;28;19910;-23
2023/07/16 10:44:40;;;;;;;;;;;;;;;;;;4995238;28;20008;-24
2023/07/16 10:47:06;;;;;;;;;;;;;;;;;;4995223;28;20349;-23
2023/07/16 10:49:32;;;;;;;;;;;;;;;;;;4995414;28;20001;-26
2023/07/16 10:51:58;;;;;;;;;;;;;;;;;;4995070;28;19914;-25
2023/07/16 10:54:24;;;;;;;;;;;;;;;;;;4995137;28;19909;-23
2023/07/16 10:56:51;;;;;;;;;;;;;;;;;;4995410;28;19952;-22
2023/07/16 10:59:17;;;;;;;;;;;;;;;;;;4995335;28;19960;-24
2023/07/16 11:01:43;;;;;;;;;;;;;;;;;;4994081;28;20346;-30
2023/07/16 11:04:09;;;;;;;;;;;;;;;;;;5020016;28;19921;-26
2023/07/16 11:06:35;;;;;;;;;;;;;;;;;;5035397;28;20030;-23
2023/07/16 11:09:01;;;;;;;;;;;;;;;;;;5038405;28;19909;-24
2023/07/16 11:11:27;;;;;;;;;;;;;;;;;;5038605;28;19909;-24
2023/07/16 11:13:53;;;;;;;;;;;;;;;;;;5020685;28;19920;-21
2023/07/16 11:16:19;;;;;;;;;;;;;;;;;;5038441;28;20395;-23
2023/07/16 11:18:45;;;;;;;;;;;;;;;;;;5038360;28;19999;-29
2023/07/16 11:21:11;;;;;;;;;;;;;;;;;;5038167;28;19909;-31
2023/07/16 11:23:37;;;;;;;;;;;;;;;;;;5038271;28;20416;-30
2023/07/16 11:26:03;;;;;;;;;;;;;;;;;;5038049;28;19916;-25
2023/07/16 11:28:29;;;;;;;;;;;;;;;;;;5037951;28;19909;-25
2023/07/16 11:30:55;;;;;;;;;;;;;;;;;;5037954;28;19967;-28
2023/07/16 11:33:21;;;;;;;;;;;;;;;;;;5037768;28;19909;-26
2023/07/16 11:35:47;;;;;;;;;;;;;;;;;;5038075;28;19952;-25
2023/07/16 11:38:13;;;;;;;;;;;;;;;;;;5038015;28;19975;-27
2023/07/16 11:40:39;;;;;;;;;;;;;;;;;;5037643;28;19913;-29
2023/07/16 11:43:05;;;;;;;;;;;;;;;;;;5037839;28;19909;-28
2023/07/16 11:45:31;;;;;;;;;;;;;;;;;;5037664;28;20004;-26
2023/07/16 11:47:59;;;;;;;;;;;;;;;;;;5037607;28;19909;-23
2023/07/16 11:50:25;;;;;;;;;;;;;;;;;;5037527;28;19920;-25
2023/07/16 11:52:51;;;;;;;;;;;;;;;;;;5037465;28;19909;-25
2023/07/16 11:55:17;;;;;;;;;;;;;;;;;;5037707;28;19910;-23
2023/07/16 11:57:43;;;;;;;;;;;;;;;;;;5037418;28;19909;-28
2023/07/16 12:00:09;;;;;;;;;;;;;;;;;;5037550;28;20043;-23
2023/07/16 12:02:35;;;;;;;;;;;;;;;;;;5037228;28;19917;-30
2023/07/16 12:05:01;;;;;;;;;;;;;;;;;;5037546;28;20011;-28
2023/07/16 12:07:27;;;;;;;;;;;;;;;;;;5037257;28;19967;-22
2023/07/16 12:09:52;;;;;;;;;;;;;;;;;;5037475;28;19909;-28
2023/07/16 12:12:18;;;;;;;;;;;;;;;;;;5037116;28;19909;-26
2023/07/16 12:14:44;;;;;;;;;;;;;;;;;;5037386;28;19909;-27
2023/07/16 12:17:10;;;;;;;;;;;;;;;;;;5037070;28;19913;-21
2023/07/16 12:19:36;;;;;;;;;;;;;;;;;;5036288;28;19921;-28
2023/07/16 12:22:03;;;;;;;;;;;;;;;;;;5036975;28;19925;-32
2023/07/16 12:24:28;;;;;;;;;;;;;;;;;;5036917;28;19913;-22
2023/07/16 12:26:54;;;;;;;;;;;;;;;;;;5036969;28;20001;-25
2023/07/16 12:29:20;;;;;;;;;;;;;;;;;;5036900;28;19985;-25
2023/07/16 12:31:46;;;;;;;;;;;;;;;;;;5037048;28;19909;-25
2023/07/16 12:34:12;;;;;;;;;;;;;;;;;;5036817;28;20009;-28
2023/07/16 12:36:38;;;;;;;;;;;;;;;;;;5036758;28;19963;-25
2023/07/16 12:39:04;;;;;;;;;;;;;;;;;;5036603;28;19921;-26
2023/07/16 12:41:30;;;;;;;;;;;;;;;;;;5036604;28;20004;-30
2023/07/16 12:43:56;;;;;;;;;;;;;;;;;;5036612;28;19971;-23
2023/07/16 12:46:22;;;;;;;;;;;;;;;;;;5036628;28;19948;-25
2023/07/16 12:48:48;;;;;;;;;;;;;;;;;;5036783;28;19916;-24
2023/07/16 12:51:14;;;;;;;;;;;;;;;;;;5036691;28;19909;-24
2023/07/16 12:53:41;;;;;;;;;;;;;;;;;;5036273;28;20042;-31
2023/07/16 12:56:07;;;;;;;;;;;;;;;;;;5036663;28;19920;-29
2023/07/16 12:58:33;;;;;;;;;;;;;;;;;;5036282;28;19909;-27
2023/07/16 13:00:59;;;;;;;;;;;;;;;;;;5036353;28;20063;-25
2023/07/16 13:03:25;;;;;;;;;;;;;;;;;;5036537;28;19921;-27
2023/07/16 13:05:50;;;;;;;;;;;;;;;;;;5036280;28;19935;-25
2023/07/16 13:08:16;;;;;;;;;;;;;;;;;;5036422;28;19916;-23
2023/07/16 13:10:42;;;;;;;;;;;;;;;;;;5036196;28;19976;-28
2023/07/16 13:13:08;;;;;;;;;;;;;;;;;;5036291;28;19920;-24
2023/07/16 13:15:34;;;;;;;;;;;;;;;;;;5036041;28;19909;-23
2023/07/16 13:18:00;;;;;;;;;;;;;;;;;;5036265;28;19920;-27
2023/07/16 13:20:26;;;;;;;;;;;;;;;;;;5036101;28;20311;-28
2023/07/16 13:22:52;;;;;;;;;;;;;;;;;;5036127;28;19984;-27
2023/07/16 13:25:18;;;;;;;;;;;;;;;;;;5035836;28;19910;-24
2023/07/16 13:27:44;;;;;;;;;;;;;;;;;;5035788;28;19920;-23
2023/07/16 13:30:10;;;;;;;;;;;;;;;;;;5035560;28;19917;-25
2023/07/16 13:32:36;;;;;;;;;;;;;;;;;;5035744;28;20348;-24
2023/07/16 13:35:02;;;;;;;;;;;;;;;;;;5035948;28;19909;-29
2023/07/16 13:37:28;;;;;;;;;;;;;;;;;;5035674;28;19974;-31
2023/07/16 13:39:54;;;;;;;;;;;;;;;;;;5035554;28;19921;-29
2023/07/16 13:42:20;;;;;;;;;;;;;;;;;;5035459;28;19913;-29
2023/07/16 13:44:46;;;;;;;;;;;;;;;;;;5035537;28;19909;-25
2023/07/16 13:47:12;;;;;;;;;;;;;;;;;;5035715;28;20014;-25
2023/07/16 13:49:38;;;;;;;;;;;;;;;;;;5035724;28;20002;-31
2023/07/16 13:52:04;;;;;;;;;;;;;;;;;;5035311;28;19916;-26
2023/07/16 13:54:30;;;;;;;;;;;;;;;;;;5035284;28;20321;-28
2023/07/16 13:56:56;;;;;;;;;;;;;;;;;;5035303;28;20241;-25
2023/07/16 13:59:22;;;;;;;;;;;;;;;;;;5035175;28;20258;-26
2023/07/16 14:01:48;;;;;;;;;;;;;;;;;;5035164;28;19988;-24
2023/07/16 14:04:14;;;;;;;;;;;;;;;;;;5035045;28;19921;-24
2023/07/16 14:06:40;;;;;;;;;;;;;;;;;;5035430;28;19909;-24
2023/07/16 14:09:06;;;;;;;;;;;;;;;;;;5035377;28;19909;-29
2023/07/16 14:11:32;;;;;;;;;;;;;;;;;;5035028;28;19956;-29
2023/07/16 14:13:58;;;;;;;;;;;;;;;;;;5034966;28;19917;-24
2023/07/16 14:16:24;;;;;;;;;;;;;;;;;;5035001;28;19909;-26
2023/07/16 14:18:49;;;;;;;;;;;;;;;;;;5034910;28;19909;-28
2023/07/16 14:21:15;;;;;;;;;;;;;;;;;;5035152;28;19913;-29
2023/07/16 14:23:41;;;;;;;;;;;;;;;;;;5035094;28;19909;-23
2023/07/16 14:26:07;;;;;;;;;;;;;;;;;;5034820;28;20006;-23
2023/07/16 14:28:33;;;;;;;;;;;;;;;;;;5035055;28;19913;-24
2023/07/16 14:30:59;;;;;;;;;;;;;;;;;;5017226;28;19913;-29
2023/07/16 14:33:25;;;;;;;;;;;;;;;;;;5034640;28;19916;-23
2023/07/16 14:35:51;;;;;;;;;;;;;;;;;;5034908;28;19909;-26
2023/07/16 14:38:17;;;;;;;;;;;;;;;;;;5034868;28;19932;-22
2023/07/16 14:40:43;;;;;;;;;;;;;;;;;;5034078;28;19913;-26
2023/07/16 14:43:09;;;;;;;;;;;;;;;;;;5034228;28;20268;-25
2023/07/16 14:45:35;;;;;;;;;;;;;;;;;;5034741;28;19920;-27
2023/07/16 14:48:01;;;;;;;;;;;;;;;;;;5034765;28;19917;-25
2023/07/16 14:50:27;;;;;;;;;;;;;;;;;;5034450;28;19910;-26
2023/07/16 14:52:53;;;;;;;;;;;;;;;;;;5034454;28;19909;-25
2023/07/16 14:55:19;;;;;;;;;;;;;;;;;;5035163;28;20013;-30
2023/07/16 14:57:45;;;;;;;;;;;;;;;;;;5034464;28;19920;-24
2023/07/16 15:00:11;;;;;;;;;;;;;;;;;;5034615;28;20011;-23
2023/07/16 15:02:37;;;;;;;;;;;;;;;;;;5034130;28;19917;-25
2023/07/16 15:05:04;;;;;;;;;;;;;;;;;;5034615;28;19913;-25
2023/07/16 15:07:30;;;;;;;;;;;;;;;;;;5034326;28;19924;-24
2023/07/16 15:09:56;;;;;;;;;;;;;;;;;;5034573;28;19913;-29
2023/07/16 15:12:22;;;;;;;;;;;;;;;;;;5034212;28;19916;-28
2023/07/16 15:14:48;;;;;;;;;;;;;;;;;;5034279;28;20399;-26
2023/07/16 15:17:14;;;;;;;;;;;;;;;;;;5034270;28;20004;-26
2023/07/16 15:19:40;;;;;;;;;;;;;;;;;;5034175;28;19975;-26
2023/07/16 15:22:06;;;;;;;;;;;;;;;;;;5034068;28;19924;-29
2023/07/16 15:24:32;;;;;;;;;;;;;;;;;;5034126;28;19911;-26
2023/07/16 15:26:58;;;;;;;;;;;;;;;;;;5034498;28;19909;-26
2023/07/16 15:29:24;;;;;;;;;;;;;;;;;;5034167;28;19920;-30
2023/07/16 15:31:50;;;;;;;;;;;;;;;;;;5034071;28;19920;-26
2023/07/16 15:34:16;;;;;;;;;;;;;;;;;;5035162;28;19996;-22
2023/07/16 15:36:42;;;;;;;;;;;;;;;;;;5034348;28;20333;-28
2023/07/16 15:39:08;;;;;;;;;;;;;;;;;;5034036;28;19913;-27
2023/07/16 15:41:34;;;;;;;;;;;;;;;;;;5017385;28;19910;-25
2023/07/16 15:44:03;;;;;;;;;;;;;;;;;;5033881;28;19924;-20
2023/07/16 15:46:29;;;;;;;;;;;;;;;;;;5034284;28;19909;-26
2023/07/16 15:48:55;;;;;;;;;;;;;;;;;;5033945;28;19975;-27
2023/07/16 15:51:21;;;;;;;;;;;;;;;;;;5033971;28;19909;-26
2023/07/16 15:53:47;;;;;;;;;;;;;;;;;;5036963;28;19927;-25
2023/07/16 15:56:13;;;;;;;;;;;;;;;;;;5037789;28;19928;-27
2023/07/16 15:58:39;;;;;;;;;;;;;;;;;;5037557;28;19917;-25
2023/07/16 16:01:05;;;;;;;;;;;;;;;;;;5037370;28;20348;-24
2023/07/16 16:03:32;;;;;;;;;;;;;;;;;;5037364;28;20004;-26
2023/07/16 16:05:58;;;;;;;;;;;;;;;;;;5037490;28;19909;-25
2023/07/16 16:08:24;;;;;;;;;;;;;;;;;;5037398;28;19909;-25
2023/07/16 16:10:50;;;;;;;;;;;;;;;;;;5037382;28;20247;-24
2023/07/16 16:13:16;;;;;;;;;;;;;;;;;;5037220;28;19909;-25
2023/07/16 16:15:42;;;;;;;;;;;;;;;;;;5037518;28;19948;-24
2023/07/16 16:18:08;;;;;;;;;;;;;;;;;;5037186;28;20289;-26
2023/07/16 16:20:34;;;;;;;;;;;;;;;;;;5037375;28;19913;-28
2023/07/16 16:23:00;;;;;;;;;;;;;;;;;;5037330;28;19936;-25
2023/07/16 16:25:26;;;;;;;;;;;;;;;;;;5037338;28;20359;-25
2023/07/16 16:27:52;;;;;;;;;;;;;;;;;;5036960;28;19913;-25
2023/07/16 16:30:18;;;;;;;;;;;;;;;;;;5036923;28;19909;-26
2023/07/16 16:32:44;;;;;;;;;;;;;;;;;;5036844;28;19909;-27
2023/07/16 16:35:10;;;;;;;;;;;;;;;;;;5037078;28;19912;-28
2023/07/16 16:37:36;;;;;;;;;;;;;;;;;;5037080;28;19909;-27